Time;durP1;ratioP1;P1;durP2;ratioP2;P2;SDS_P1;SDS_P2;PMS_P1;PMS_P2;Temp;Humidity;BMP_temperature;BMP_pressure;BME280_temperature;BME280_humidity;BME280_pressure;Samples;Min_cycle;Max_cycle;Signal;HPM_P1;HPM_P2
2021/12/02 00:00:45;;;;;;;5.67;1.77;;;3.60;99.90;;;;;;5132982;27;20039;-54
2021/12/02 00:03:12;;;;;;;4.23;0.60;;;3.60;99.90;;;;;;5132435;27;20031;-54
2021/12/02 00:05:37;;;;;;;5.15;1.05;;;3.50;99.90;;;;;;5133072;27;20039;-52
2021/12/02 00:08:03;;;;;;;4.57;0.63;;;3.40;99.90;;;;;;5131605;27;20500;-53
2021/12/02 00:10:31;;;;;;;3.88;0.43;;;3.40;99.90;;;;;;5133782;27;20068;-55
2021/12/02 00:13:01;;;;;;;3.60;0.45;;;3.40;99.90;;;;;;5132531;27;20039;-54
2021/12/02 00:15:43;;;;;;;6.30;0.70;;;3.30;99.90;;;;;;5132525;27;20038;-55
2021/12/02 00:18:41;;;;;;;5.03;0.60;;;3.30;99.90;;;;;;5132149;27;20566;-54
2021/12/02 00:21:09;;;;;;;5.43;0.80;;;3.20;99.90;;;;;;5132797;27;20125;-54
2021/12/02 00:23:47;;;;;;;6.60;0.68;;;3.20;99.90;;;;;;5120516;27;20048;-52
2021/12/02 00:26:18;;;;;;;7.50;0.75;;;3.10;99.90;;;;;;5132741;27;20035;-55
2021/12/02 00:28:47;;;;;;;2.45;0.50;;;3.10;99.90;;;;;;5132147;27;20039;-54
2021/12/02 00:31:18;;;;;;;5.03;1.23;;;3.10;99.90;;;;;;5128678;27;20179;-54
2021/12/02 00:33:46;;;;;;;5.68;0.75;;;3.10;99.90;;;;;;5131532;27;20526;-50
2021/12/02 00:36:14;;;;;;;6.55;0.90;;;3.10;99.90;;;;;;5132842;27;20047;-54
2021/12/02 00:38:41;;;;;;;4.63;0.60;;;3.10;99.90;;;;;;5132313;27;20440;-52
2021/12/02 00:41:27;;;;;;;5.88;0.85;;;3.10;99.90;;;;;;5132965;27;20035;-50
2021/12/02 00:43:54;;;;;;;6.38;2.40;;;3.20;99.90;;;;;;5131274;27;20030;-53
2021/12/02 00:46:22;;;;;;;5.65;1.30;;;3.20;99.90;;;;;;5131968;27;20437;-53
2021/12/02 00:48:48;;;;;;;3.22;1.23;;;3.30;99.90;;;;;;5131910;27;20083;-54
2021/12/02 00:51:15;;;;;;;6.38;2.40;;;3.30;99.90;;;;;;5132588;27;20519;-54
2021/12/02 00:53:44;;;;;;;9.52;0.77;;;3.30;99.90;;;;;;5132136;27;20046;-52
2021/12/02 00:56:15;;;;;;;10.80;1.20;;;3.40;99.90;;;;;;5114139;27;20703;-55
2021/12/02 00:58:45;;;;;;;8.07;0.55;;;3.40;99.90;;;;;;5131495;27;20043;-54
2021/12/02 01:01:12;;;;;;;15.68;1.13;;;3.40;99.90;;;;;;5132471;27;20047;-54
2021/12/02 01:03:38;;;;;;;6.38;0.65;;;3.40;99.90;;;;;;5131643;27;20396;-51
2021/12/02 01:06:05;;;;;;;;;;;3.40;99.90;;;;;;5132708;27;20027;-52
2021/12/02 01:08:32;;;;;;;4.00;0.70;;;3.40;99.90;;;;;;5131623;27;19926;-53
2021/12/02 01:10:58;;;;;;;7.65;0.98;;;3.40;99.90;;;;;;5132105;27;20058;-54
2021/12/02 01:13:23;;;;;;;3.30;0.50;;;3.40;99.90;;;;;;5131445;27;20096;-53
2021/12/02 01:15:49;;;;;;;5.93;0.87;;;3.40;99.90;;;;;;5132357;27;20054;-55
2021/12/02 01:18:16;;;;;;;10.00;1.63;;;3.30;99.90;;;;;;5130774;27;20039;-53
2021/12/02 01:35:27;;;;;;;5.03;0.50;;;3.20;99.90;;;;;;5130794;27;20037;-52
2021/12/02 01:37:53;;;;;;;6.97;0.82;;;3.20;99.90;;;;;;5129953;27;20138;-52
2021/12/02 01:40:19;;;;;;;5.65;0.60;;;3.20;99.90;;;;;;5131354;27;20118;-54
2021/12/02 01:42:46;;;;;;;5.88;0.77;;;3.20;99.90;;;;;;5131004;27;20126;-54
2021/12/02 01:45:15;;;;;;;6.25;0.60;;;3.10;99.90;;;;;;5130397;27;20042;-55
2021/12/02 01:47:47;;;;;;;4.00;0.50;;;3.10;99.90;;;;;;5130002;27;20431;-54
2021/12/02 01:50:16;;;;;;;7.10;0.90;;;3.00;99.90;;;;;;5131835;27;20400;-51
2021/12/02 01:52:44;;;;;;;4.80;0.40;;;2.90;99.90;;;;;;5130553;27;20031;-54
2021/12/02 01:55:12;;;;;;;8.45;0.50;;;2.90;99.90;;;;;;5130555;27;20047;-54
2021/12/02 01:57:47;;;;;;;1.83;0.25;;;2.80;99.90;;;;;;5129845;27;20039;-51
2021/12/02 02:00:17;;;;;;;6.55;0.50;;;2.80;99.90;;;;;;5131135;27;20039;-52
2021/12/02 02:02:43;;;;;;;3.67;0.60;;;2.70;99.90;;;;;;5131146;27;20110;-53
2021/12/02 02:05:12;;;;;;;3.63;0.35;;;2.70;99.90;;;;;;5130435;27;20046;-54
2021/12/02 02:07:48;;;;;;;4.32;0.40;;;2.70;99.90;;;;;;5130152;27;20039;-51
2021/12/02 02:10:15;;;;;;;3.33;0.50;;;2.70;99.90;;;;;;5131069;28;20042;-54
2021/12/02 02:12:41;;;;;;;5.53;0.50;;;2.80;99.90;;;;;;5130769;28;20404;-52
2021/12/02 02:15:07;;;;;;;6.20;0.43;;;2.80;99.90;;;;;;5130075;28;20043;-54
2021/12/02 02:20:36;;;;;;;3.72;0.43;;;2.90;99.90;;;;;;5130979;28;20122;-54
2021/12/02 02:23:04;;;;;;;4.95;0.68;;;3.00;99.90;;;;;;5130212;28;20043;-53
2021/12/02 02:25:30;;;;;;;4.78;0.60;;;3.00;99.90;;;;;;5130677;28;20039;-55
2021/12/02 02:27:55;;;;;;;3.27;0.60;;;3.10;99.90;;;;;;5129953;28;20097;-52
2021/12/02 02:30:21;;;;;;;7.10;0.60;;;3.20;99.90;;;;;;5130398;27;20031;-54
2021/12/02 02:32:46;;;;;;;8.03;0.60;;;3.30;99.90;;;;;;5134865;27;20512;-52
2021/12/02 02:35:12;;;;;;;4.47;0.53;;;3.30;99.90;;;;;;5134341;27;20041;-55
2021/12/02 02:37:38;;;;;;;4.60;0.60;;;3.40;99.90;;;;;;5134394;27;20496;-50
2021/12/02 02:40:07;;;;;;;5.35;0.88;;;3.40;99.90;;;;;;5134132;27;20046;-53
2021/12/02 02:42:34;;;;;;;6.35;0.30;;;3.40;99.90;;;;;;5134532;27;20054;-50
2021/12/02 02:45:00;;;;;;;3.80;0.63;;;3.40;99.90;;;;;;5133448;27;20043;-51
2021/12/02 02:47:27;;;;;;;1.48;0.43;;;3.40;99.90;;;;;;5134319;27;20039;-52
2021/12/02 02:49:53;;;;;;;2.85;0.30;;;3.40;99.90;;;;;;5134432;27;20111;-51
2021/12/02 02:52:18;;;;;;;1.27;0.40;;;3.30;99.90;;;;;;5134781;27;20035;-52
2021/12/02 02:54:44;;;;;;;2.00;0.30;;;3.30;99.90;;;;;;5134215;27;20079;-51
2021/12/02 02:57:12;;;;;;;1.67;0.32;;;3.20;99.90;;;;;;5134740;27;20347;-55
2021/12/02 03:00:22;;;;;;;1.23;0.32;;;3.10;99.90;;;;;;5133888;27;20043;-50
2021/12/02 03:02:51;;;;;;;3.92;0.30;;;3.00;99.90;;;;;;5132295;27;20047;-48
2021/12/02 03:05:33;;;;;;;3.50;0.47;;;2.90;99.90;;;;;;5134025;27;20237;-49
2021/12/02 03:08:14;;;;;;;3.70;0.30;;;2.80;99.90;;;;;;5133476;27;20046;-50
2021/12/02 03:10:47;;;;;;;1.02;0.30;;;2.80;99.90;;;;;;5134702;27;20031;-54
2021/12/02 03:13:28;;;;;;;3.03;0.32;;;2.80;99.90;;;;;;5133687;27;20100;-50
2021/12/02 03:18:38;;;;;;;5.88;0.55;;;2.70;99.90;;;;;;5133595;27;20047;-50
2021/12/02 03:21:21;;;;;;;2.33;0.30;;;2.60;99.90;;;;;;5134183;27;20046;-52
2021/12/02 03:23:54;;;;;;;2.00;0.30;;;2.60;99.90;;;;;;5132298;27;20038;-48
2021/12/02 03:26:21;;;;;;;3.10;0.22;;;2.50;99.90;;;;;;5133758;27;20075;-53
2021/12/02 03:28:51;;;;;;;2.08;0.40;;;2.50;99.90;;;;;;5132627;27;20491;-53
2021/12/02 03:31:17;;;;;;;3.85;0.30;;;2.40;99.90;;;;;;5133749;27;20079;-51
2021/12/02 03:33:43;;;;;;;2.15;0.30;;;2.40;99.90;;;;;;5132837;27;20031;-54
2021/12/02 03:36:10;;;;;;;1.40;0.30;;;2.40;99.90;;;;;;5133680;27;20412;-54
2021/12/02 03:38:36;;;;;;;2.60;0.30;;;2.40;99.90;;;;;;5132032;27;20046;-53
2021/12/02 03:41:02;;;;;;;1.30;0.32;;;2.40;99.90;;;;;;5133929;27;20035;-53
2021/12/02 03:43:37;;;;;;;4.10;0.30;;;2.40;99.90;;;;;;5132566;27;20407;-54
2021/12/02 03:46:03;;;;;;;2.72;0.30;;;2.30;99.90;;;;;;5133855;27;20032;-51
2021/12/02 03:48:28;;;;;;;0.32;0.20;;;2.30;99.90;;;;;;5114271;27;20076;-55
2021/12/02 03:50:54;;;;;;;1.07;0.20;;;2.30;99.90;;;;;;5133738;27;20209;-55
2021/12/02 03:53:20;;;;;;;3.57;0.40;;;2.30;99.90;;;;;;5132659;27;20095;-53
2021/12/02 03:55:45;;;;;;;3.50;0.73;;;2.30;99.90;;;;;;5132679;27;20570;-53
2021/12/02 03:58:11;;;;;;;1.17;0.28;;;2.30;99.90;;;;;;5132599;27;20444;-53
2021/12/02 04:00:37;;;;;;;4.73;1.60;;;2.20;99.90;;;;;;5132822;27;20035;-53
2021/12/02 04:03:02;;;;;;;0.70;0.30;;;2.20;99.90;;;;;;5132762;27;20043;-53
2021/12/02 04:05:28;;;;;;;0.83;0.40;;;2.10;99.90;;;;;;5114305;27;20126;-51
2021/12/02 04:07:53;;;;;;;0.50;0.30;;;2.10;99.90;;;;;;5132501;27;20046;-52
2021/12/02 04:10:20;;;;;;;1.23;0.30;;;2.10;99.90;;;;;;5133122;27;20520;-53
2021/12/02 04:13:32;;;;;;;1.10;0.60;;;2.10;99.90;;;;;;5132985;27;20112;-52
2021/12/02 04:15:38;;;;;;;4.05;0.50;;;2.00;99.90;;;;;;5123999;27;20047;-48
2021/12/02 04:18:04;;;;;;;1.98;0.30;;;1.90;99.90;;;;;;5132355;27;20217;-52
2021/12/02 04:20:30;;;;;;;0.37;0.37;;;1.90;99.90;;;;;;5132539;27;20050;-53
2021/12/02 04:22:56;;;;;;;0.60;0.30;;;1.80;99.90;;;;;;5132547;27;20074;-52
2021/12/02 04:25:23;;;;;;;0.55;0.20;;;1.80;99.90;;;;;;5131672;27;20471;-54
2021/12/02 04:27:50;;;;;;;0.40;0.20;;;1.80;99.90;;;;;;5132138;27;20499;-51
2021/12/02 04:30:17;;;;;;;;;;;1.80;99.90;;;;;;5115172;27;20039;-53
2021/12/02 04:32:42;;;;;;;2.30;0.38;;;1.80;99.90;;;;;;5131896;27;20380;-52
2021/12/02 04:35:09;;;;;;;1.07;0.50;;;1.80;99.90;;;;;;5132240;27;20050;-51
2021/12/02 04:37:35;;;;;;;1.45;0.47;;;1.80;99.90;;;;;;5132199;27;20080;-49
2021/12/02 04:40:00;;;;;;;3.13;0.30;;;1.80;99.90;;;;;;5114140;27;20114;-50
2021/12/02 04:42:27;;;;;;;4.60;0.30;;;1.80;99.90;;;;;;5132776;27;20099;-48
2021/12/02 04:44:52;;;;;;;0.80;0.20;;;1.90;99.90;;;;;;5132128;27;20184;-53
2021/12/02 04:47:18;;;;;;;2.70;0.30;;;1.90;99.90;;;;;;5132811;27;20575;-51
2021/12/02 04:49:44;;;;;;;0.50;0.30;;;1.90;99.90;;;;;;5132073;27;20027;-50
2021/12/02 04:52:10;;;;;;;0.28;0.20;;;2.00;99.90;;;;;;5131680;27;20180;-51
2021/12/02 04:54:36;;;;;;;1.00;0.30;;;1.90;99.90;;;;;;5131291;27;20035;-50
2021/12/02 04:57:02;;;;;;;3.20;0.40;;;2.00;99.90;;;;;;5131738;27;20023;-53
2021/12/02 04:59:28;;;;;;;4.22;0.60;;;2.00;99.90;;;;;;5131815;27;20114;-50
2021/12/02 05:01:53;;;;;;;2.83;0.30;;;1.90;99.90;;;;;;5132340;27;20119;-51
2021/12/02 05:04:19;;;;;;;2.13;0.30;;;2.00;99.90;;;;;;5131053;27;20059;-54
2021/12/02 05:06:45;;;;;;;0.93;0.40;;;1.90;99.90;;;;;;5132432;27;20126;-51
2021/12/02 05:09:10;;;;;;;0.52;0.30;;;1.90;99.90;;;;;;5112505;27;20065;-50
2021/12/02 05:11:38;;;;;;;3.63;0.83;;;1.90;99.90;;;;;;5132283;27;20084;-52
2021/12/02 05:14:04;;;;;;;1.38;0.20;;;1.90;99.90;;;;;;5112978;27;20035;-50
2021/12/02 05:16:30;;;;;;;2.40;0.30;;;1.80;99.90;;;;;;5132513;27;20503;-52
2021/12/02 05:18:56;;;;;;;1.33;0.53;;;1.80;99.90;;;;;;5130644;27;20144;-53
2021/12/02 05:21:21;;;;;;;2.00;0.45;;;1.80;99.90;;;;;;5131784;27;20097;-50
2021/12/02 05:23:53;;;;;;;2.25;0.20;;;1.80;99.90;;;;;;5130368;27;20067;-54
2021/12/02 05:26:19;;;;;;;3.15;0.50;;;1.80;99.90;;;;;;5131606;27;20036;-52
2021/12/02 05:28:44;;;;;;;3.67;0.38;;;1.80;99.90;;;;;;5130555;27;20031;-52
2021/12/02 05:31:10;;;;;;;2.00;0.30;;;1.80;99.90;;;;;;5131737;27;20047;-52
2021/12/02 05:33:35;;;;;;;2.67;0.40;;;1.80;99.90;;;;;;5130440;27;20031;-50
2021/12/02 05:36:01;;;;;;;2.30;0.30;;;1.80;99.90;;;;;;5130914;27;20054;-53
2021/12/02 05:38:27;;;;;;;1.13;0.30;;;1.80;99.90;;;;;;5130474;27;20038;-50
2021/12/02 05:40:52;;;;;;;3.30;0.47;;;1.80;99.90;;;;;;5131480;27;20049;-49
2021/12/02 05:43:18;;;;;;;0.60;0.30;;;1.80;99.90;;;;;;5130694;27;20407;-53
2021/12/02 05:45:43;;;;;;;1.33;0.40;;;1.80;99.90;;;;;;5131038;27;20079;-52
2021/12/02 05:48:09;;;;;;;1.03;0.50;;;1.80;99.90;;;;;;5130278;27;20035;-53
2021/12/02 05:50:34;;;;;;;4.90;0.30;;;1.80;99.90;;;;;;5130756;27;20058;-49
2021/12/02 05:53:00;;;;;;;0.70;0.30;;;1.80;99.90;;;;;;5131224;27;20038;-53
2021/12/02 05:55:26;;;;;;;1.33;0.70;;;1.80;99.90;;;;;;5130591;27;20119;-53
2021/12/02 05:57:51;;;;;;;1.33;0.30;;;1.80;99.90;;;;;;5130500;27;20043;-53
2021/12/02 06:00:17;;;;;;;0.43;0.20;;;1.80;99.90;;;;;;5130655;27;20496;-52
2021/12/02 06:02:43;;;;;;;3.70;0.30;;;1.80;99.90;;;;;;5130915;27;20415;-50
2021/12/02 06:05:09;;;;;;;1.77;0.30;;;1.80;99.90;;;;;;5129810;27;20126;-51
2021/12/02 06:07:35;;;;;;;4.68;1.13;;;1.80;99.90;;;;;;5130484;27;20164;-51
2021/12/02 06:10:02;;;;;;;4.65;0.80;;;1.80;99.90;;;;;;5130303;27;20039;-51
2021/12/02 06:12:28;;;;;;;2.42;0.40;;;1.80;99.90;;;;;;5130537;28;20039;-53
2021/12/02 06:14:53;;;;;;;2.17;0.30;;;1.80;99.90;;;;;;5129898;28;20065;-54
2021/12/02 06:17:19;;;;;;;3.00;0.30;;;1.80;99.90;;;;;;5130276;28;20058;-51
2021/12/02 06:19:45;;;;;;;2.03;0.40;;;1.80;99.90;;;;;;5130521;28;20035;-53
2021/12/02 06:22:10;;;;;;;0.77;0.30;;;1.80;99.90;;;;;;5130354;28;20076;-51
2021/12/02 06:25:43;;;;;;;1.97;0.37;;;1.80;99.90;;;;;;5130385;28;20041;-53
2021/12/02 06:27:28;;;;;;;1.40;0.25;;;1.80;99.90;;;;;;5117751;28;20031;-54
2021/12/02 06:29:54;;;;;;;4.40;0.43;;;1.80;99.90;;;;;;5130320;28;20411;-54
2021/12/02 06:32:19;;;;;;;0.80;0.50;;;1.70;99.90;;;;;;5130837;27;20039;-54
2021/12/02 06:34:45;;;;;;;2.43;0.37;;;1.70;99.90;;;;;;5130540;28;20043;-52
2021/12/02 06:37:10;;;;;;;1.67;0.40;;;1.70;99.90;;;;;;5130847;28;20031;-53
2021/12/02 06:39:36;;;;;;;0.97;0.30;;;1.70;99.90;;;;;;5130419;28;20484;-51
2021/12/02 06:42:02;;;;;;;1.23;0.33;;;1.70;99.90;;;;;;5131184;28;20031;-52
2021/12/02 06:44:28;;;;;;;2.63;0.30;;;1.70;99.90;;;;;;5130039;27;20281;-50
2021/12/02 06:46:55;;;;;;;1.73;0.20;;;1.70;99.90;;;;;;5112955;28;20474;-51
2021/12/02 06:49:21;;;;;;;1.17;0.30;;;1.70;99.90;;;;;;5129913;28;20035;-53
2021/12/02 06:51:47;;;;;;;0.87;0.30;;;1.70;99.90;;;;;;5130798;28;20079;-52
2021/12/02 06:54:12;;;;;;;0.77;0.37;;;1.70;99.90;;;;;;5129545;28;20095;-53
2021/12/02 06:56:38;;;;;;;2.60;0.70;;;1.70;99.90;;;;;;5130622;28;20191;-48
2021/12/02 06:59:03;;;;;;;3.03;0.30;;;1.70;99.90;;;;;;5129516;28;20038;-54
2021/12/02 07:01:29;;;;;;;3.70;0.50;;;1.70;99.90;;;;;;5130573;28;20113;-52
2021/12/02 07:03:54;;;;;;;1.70;0.30;;;1.70;99.90;;;;;;5129313;28;20031;-52
2021/12/02 07:06:20;;;;;;;2.03;0.50;;;1.80;99.90;;;;;;5130740;28;20075;-50
2021/12/02 07:08:46;;;;;;;2.53;0.30;;;1.80;99.90;;;;;;5129602;28;20109;-51
2021/12/02 07:11:11;;;;;;;1.20;0.63;;;1.90;99.90;;;;;;5112291;28;20039;-49
2021/12/02 07:13:39;;;;;;;1.20;0.60;;;1.90;99.90;;;;;;5129591;28;20396;-50
2021/12/02 07:16:04;;;;;;;1.65;0.30;;;1.90;99.90;;;;;;5130109;28;20114;-50
2021/12/02 07:18:35;;;;;;;0.90;0.43;;;1.90;99.90;;;;;;5133131;27;20487;-53
2021/12/02 07:21:01;;;;;;;2.60;0.30;;;1.90;99.90;;;;;;5134408;27;20027;-51
2021/12/02 07:23:27;;;;;;;2.30;0.30;;;1.90;99.90;;;;;;5133215;27;20496;-54
2021/12/02 07:25:52;;;;;;;5.60;1.33;;;2.00;99.90;;;;;;5133704;27;20043;-52
2021/12/02 07:28:19;;;;;;;1.40;0.40;;;2.00;99.90;;;;;;5132635;27;20034;-52
2021/12/02 07:30:51;;;;;;;4.22;0.45;;;2.00;99.90;;;;;;5134013;27;20058;-51
2021/12/02 07:33:18;;;;;;;2.00;0.30;;;2.00;99.90;;;;;;5132929;27;20478;-49
2021/12/02 07:35:44;;;;;;;1.80;0.40;;;2.00;99.90;;;;;;5133231;27;20230;-50
2021/12/02 07:38:09;;;;;;;1.00;0.47;;;2.10;99.90;;;;;;5113537;27;20047;-53
2021/12/02 07:40:37;;;;;;;0.60;0.30;;;2.10;99.90;;;;;;5133401;27;20428;-53
2021/12/02 07:43:03;;;;;;;0.75;0.40;;;2.10;99.90;;;;;;5133709;27;20050;-51
2021/12/02 07:45:36;;;;;;;0.82;0.45;;;2.10;99.90;;;;;;5133081;27;20496;-53
2021/12/02 07:48:04;;;;;;;0.73;0.30;;;2.10;99.90;;;;;;5127127;27;20047;-50
2021/12/02 07:50:31;;;;;;;2.75;0.50;;;2.20;99.90;;;;;;5133490;27;20114;-55
2021/12/02 07:53:04;;;;;;;1.88;0.40;;;2.20;99.90;;;;;;5133438;27;20043;-51
2021/12/02 07:55:30;;;;;;;2.38;0.50;;;2.20;99.90;;;;;;5133131;27;20075;-50
2021/12/02 07:57:57;;;;;;;2.97;0.40;;;2.20;99.90;;;;;;5132236;27;20039;-51
2021/12/02 08:00:28;;;;;;;0.60;0.47;;;2.20;99.90;;;;;;5133116;27;20042;-52
2021/12/02 08:02:54;;;;;;;1.05;0.70;;;2.30;99.90;;;;;;5132947;27;20038;-51
2021/12/02 08:05:24;;;;;;;1.15;0.77;;;2.30;99.90;;;;;;5133124;27;20050;-52
2021/12/02 08:07:51;;;;;;;0.60;0.60;;;2.30;99.90;;;;;;5132448;27;20039;-52
2021/12/02 08:10:18;;;;;;;1.58;0.60;;;2.40;99.90;;;;;;5133905;27;20377;-51
2021/12/02 08:12:50;;;;;;;0.85;0.77;;;2.40;99.90;;;;;;5133113;27;20067;-51
2021/12/02 08:15:21;;;;;;;0.90;0.60;;;2.50;99.90;;;;;;5132700;27;20035;-48
2021/12/02 08:17:47;;;;;;;0.93;0.50;;;2.60;99.90;;;;;;5133092;27;20039;-54
2021/12/02 08:20:14;;;;;;;0.52;0.52;;;2.70;99.90;;;;;;5133258;27;20492;-54
2021/12/02 08:22:40;;;;;;;3.30;0.50;;;2.90;99.90;;;;;;5110709;27;20035;-51
2021/12/02 08:25:07;;;;;;;2.28;0.60;;;3.20;99.90;;;;;;5132678;27;20042;-52
2021/12/02 08:27:32;;;;;;;2.72;0.57;;;3.30;99.90;;;;;;5132729;27;20035;-51
2021/12/02 08:29:58;;;;;;;0.77;0.43;;;3.30;99.90;;;;;;5131556;27;20079;-53
2021/12/02 08:32:24;;;;;;;1.23;0.40;;;3.30;99.90;;;;;;5132971;27;20470;-52
2021/12/02 08:34:52;;;;;;;1.77;0.70;;;3.20;99.90;;;;;;5131912;27;20035;-53
2021/12/02 08:37:18;;;;;;;2.17;0.47;;;3.20;99.90;;;;;;5132528;27;20100;-53
2021/12/02 08:39:45;;;;;;;1.30;0.40;;;3.10;99.90;;;;;;5132141;27;20031;-50
2021/12/02 08:42:11;;;;;;;0.43;0.43;;;3.10;99.90;;;;;;5132512;27;20031;-52
2021/12/02 08:44:40;;;;;;;0.52;0.40;;;3.00;99.90;;;;;;5131988;27;20035;-50
2021/12/02 08:47:09;;;;;;;0.60;0.50;;;2.90;99.90;;;;;;5114243;27;20031;-52
2021/12/02 08:49:35;;;;;;;1.20;0.52;;;2.90;99.90;;;;;;5131606;27;20039;-50
2021/12/02 08:52:01;;;;;;;1.58;0.70;;;2.90;99.90;;;;;;5132452;27;20177;-53
2021/12/02 08:54:26;;;;;;;1.73;0.80;;;2.90;99.90;;;;;;5131060;27;20031;-48
2021/12/02 08:56:54;;;;;;;0.70;0.70;;;2.90;99.90;;;;;;5132369;27;20071;-50
2021/12/02 08:59:20;;;;;;;1.67;0.88;;;2.90;99.90;;;;;;5131243;27;20043;-49
2021/12/02 09:01:47;;;;;;;2.27;0.63;;;2.90;99.90;;;;;;5132825;27;20050;-48
2021/12/02 09:04:12;;;;;;;3.42;1.67;;;3.00;99.90;;;;;;5131116;27;20043;-50
2021/12/02 09:06:38;;;;;;;1.67;1.10;;;3.00;99.90;;;;;;5132375;27;20377;-50
2021/12/02 09:09:04;;;;;;;3.47;1.20;;;3.10;99.90;;;;;;5131660;27;20038;-49
2021/12/02 09:11:31;;;;;;;4.37;1.47;;;3.10;99.90;;;;;;5132057;27;20501;-53
2021/12/02 09:13:58;;;;;;;2.47;1.20;;;3.20;99.90;;;;;;5130890;27;20090;-55
2021/12/02 09:16:25;;;;;;;3.17;1.73;;;3.20;99.90;;;;;;5131909;27;20433;-53
2021/12/02 09:18:51;;;;;;;2.80;1.80;;;3.20;99.90;;;;;;5131142;27;20446;-51
2021/12/02 09:21:17;;;;;;;4.90;2.67;;;3.30;99.90;;;;;;5131743;27;20047;-52
2021/12/02 09:23:43;;;;;;;4.30;2.17;;;3.30;99.90;;;;;;5131304;27;20126;-54
2021/12/02 09:26:08;;;;;;;3.17;1.53;;;3.30;99.90;;;;;;5131923;27;20039;-50
2021/12/02 09:28:34;;;;;;;2.53;2.20;;;3.30;99.90;;;;;;5129914;27;20126;-53
2021/12/02 09:30:59;;;;;;;3.93;2.07;;;3.30;99.90;;;;;;5131254;27;20031;-48
2021/12/02 09:33:25;;;;;;;3.13;1.97;;;3.30;99.90;;;;;;5130821;27;20035;-53
2021/12/02 09:35:51;;;;;;;4.22;1.67;;;3.30;99.90;;;;;;5112407;27;20126;-51
2021/12/02 09:38:17;;;;;;;8.87;2.27;;;3.30;99.90;;;;;;5130752;27;20099;-53
2021/12/02 09:40:44;;;;;;;6.53;2.80;;;3.30;99.90;;;;;;5121858;27;20035;-54
2021/12/02 09:43:11;;;;;;;7.38;1.88;;;3.30;99.90;;;;;;5122140;27;20079;-54
2021/12/02 09:45:38;;;;;;;3.75;2.72;;;3.30;99.90;;;;;;5129888;27;20035;-55
2021/12/02 09:48:05;;;;;;;3.72;2.17;;;3.30;99.90;;;;;;5112021;27;20035;-54
2021/12/02 09:50:38;;;;;;;;;;;3.40;99.90;;;;;;5131068;27;20033;-49
2021/12/02 09:53:07;;;;;;;3.20;1.55;;;3.40;99.90;;;;;;5129928;27;19960;-53
2021/12/02 09:55:43;;;;;;;1.95;0.93;;;3.40;99.90;;;;;;5129773;27;20035;-51
2021/12/02 09:58:16;;;;;;;1.73;0.88;;;3.40;99.90;;;;;;5129368;27;20096;-53
2021/12/02 10:00:50;;;;;;;1.30;0.63;;;3.50;99.90;;;;;;5130463;27;20077;-55
2021/12/02 10:03:28;;;;;;;0.93;0.70;;;3.50;99.90;;;;;;5128436;27;20035;-52
2021/12/02 10:06:04;;;;;;;2.00;0.70;;;3.60;99.90;;;;;;5130255;27;20109;-55
2021/12/02 10:08:33;;;;;;;1.33;0.70;;;3.70;99.90;;;;;;5129557;27;20214;-55
2021/12/02 10:11:01;;;;;;;1.90;1.35;;;3.70;99.90;;;;;;5130349;27;20039;-54
2021/12/02 10:13:36;;;;;;;1.55;0.70;;;3.80;99.90;;;;;;5129579;28;20042;-53
2021/12/02 10:16:10;;;;;;;1.85;0.70;;;3.90;99.90;;;;;;5125938;27;20035;-54
2021/12/02 10:18:53;;;;;;;2.10;0.75;;;3.90;99.90;;;;;;5129926;27;20054;-54
2021/12/02 10:21:25;;;;;;;3.85;0.75;;;4.00;99.90;;;;;;5129714;28;20445;-55
2021/12/02 10:23:53;;;;;;;3.13;0.70;;;4.10;99.90;;;;;;5125260;28;20044;-55
2021/12/02 10:26:19;;;;;;;4.05;0.88;;;4.10;99.90;;;;;;5118131;28;20579;-55
2021/12/02 10:28:47;;;;;;;;;;;4.20;99.90;;;;;;5129389;28;20075;-55
2021/12/02 10:31:19;;;;;;;2.92;1.70;;;4.30;99.90;;;;;;5129616;28;19915;-54
2021/12/02 10:33:50;;;;;;;1.73;1.50;;;4.30;99.90;;;;;;5124817;28;20039;-54
2021/12/02 10:36:34;;;;;;;1.88;1.70;;;4.40;99.90;;;;;;5123679;28;20035;-54
2021/12/02 10:39:22;;;;;;;6.07;0.98;;;4.40;99.90;;;;;;5129175;28;20042;-56
2021/12/02 10:42:09;;;;;;;2.72;1.00;;;4.50;99.90;;;;;;5129499;28;20411;-56
2021/12/02 10:44:36;;;;;;;5.72;1.60;;;4.50;99.90;;;;;;5129005;28;20043;-57
2021/12/02 10:47:14;;;;;;;2.08;1.05;;;4.50;99.90;;;;;;5111394;28;20082;-57
2021/12/02 10:49:55;;;;;;;3.22;1.38;;;4.60;99.90;;;;;;5129142;28;20039;-57
2021/12/02 10:52:23;;;;;;;1.88;1.05;;;4.60;99.90;;;;;;5130601;27;20046;-57
2021/12/02 10:54:52;;;;;;;3.97;0.98;;;4.60;99.90;;;;;;5133583;27;20567;-57
2021/12/02 10:57:28;;;;;;;1.83;0.70;;;4.60;99.90;;;;;;5133828;27;20458;-57
2021/12/02 10:59:54;;;;;;;1.17;0.85;;;4.60;99.90;;;;;;5132204;27;20395;-57
2021/12/02 11:02:32;;;;;;;1.90;1.10;;;4.60;99.90;;;;;;5126751;27;20099;-57
2021/12/02 11:05:09;;;;;;;1.63;0.50;;;4.60;99.90;;;;;;5127829;27;20038;-57
2021/12/02 11:07:39;;;;;;;5.35;0.75;;;4.70;99.90;;;;;;5128628;27;20400;-57
2021/12/02 11:10:08;;;;;;;4.40;0.57;;;4.70;99.90;;;;;;5123779;27;20035;-57
2021/12/02 11:12:40;;;;;;;0.90;0.40;;;4.70;99.90;;;;;;5129831;27;20102;-57
2021/12/02 11:15:08;;;;;;;1.65;0.40;;;4.80;99.90;;;;;;5129589;27;20058;-56
2021/12/02 11:17:58;;;;;;;4.00;0.70;;;4.80;99.90;;;;;;5129013;27;20042;-57
2021/12/02 11:20:33;;;;;;;2.15;0.50;;;4.80;99.90;;;;;;5110630;27;20051;-57
2021/12/02 11:23:28;;;;;;;2.65;0.40;;;4.80;99.90;;;;;;5126175;27;20039;-57
2021/12/02 11:26:10;;;;;;;4.13;0.40;;;4.90;99.90;;;;;;5126401;27;20039;-57
2021/12/02 11:28:39;;;;;;;3.92;0.40;;;4.90;99.90;;;;;;5120747;27;20093;-57
2021/12/02 11:31:13;;;;;;;0.77;0.43;;;5.00;99.90;;;;;;5127228;27;20484;-57
2021/12/02 11:33:41;;;;;;;2.38;0.55;;;5.00;99.90;;;;;;5122757;27;20036;-57
2021/12/02 11:36:19;;;;;;;1.88;0.38;;;5.10;99.90;;;;;;5129388;27;20074;-57
2021/12/02 11:38:46;;;;;;;3.70;0.40;;;5.10;99.90;;;;;;5127893;27;20042;-57
2021/12/02 11:41:13;;;;;;;1.30;0.40;;;5.20;99.90;;;;;;5129083;27;20078;-57
2021/12/02 11:43:39;;;;;;;1.17;0.28;;;5.20;99.90;;;;;;5126474;27;20471;-57
2021/12/02 11:46:09;;;;;;;2.75;0.20;;;5.20;99.90;;;;;;5128521;27;20041;-57
2021/12/02 11:48:41;;;;;;;1.15;0.30;;;5.00;99.90;;;;;;5125695;27;20177;-57
2021/12/02 11:51:13;;;;;;;1.38;0.30;;;4.90;99.90;;;;;;5126008;27;20037;-57
2021/12/02 11:53:40;;;;;;;4.35;0.30;;;4.80;99.90;;;;;;5127611;27;20293;-57
2021/12/02 11:56:10;;;;;;;2.55;0.30;;;4.70;99.90;;;;;;5126063;27;20471;-57
2021/12/02 11:58:36;;;;;;;2.33;1.00;;;4.60;99.90;;;;;;5125768;27;20591;-57
2021/12/02 12:01:02;;;;;;;0.47;0.40;;;4.50;99.90;;;;;;5126791;27;20110;-57
2021/12/02 12:03:32;;;;;;;;;;;4.50;99.90;;;;;;5127514;27;20043;-56
2021/12/02 12:06:07;;;;;;;3.35;0.40;;;4.50;99.90;;;;;;5105535;27;20410;-57
2021/12/02 12:08:38;;;;;;;5.50;0.30;;;4.50;99.90;;;;;;5125470;27;20035;-57
2021/12/02 12:11:22;;;;;;;0.77;0.30;;;4.50;99.90;;;;;;5128409;27;20049;-57
2021/12/02 12:14:03;;;;;;;3.67;0.25;;;4.40;99.90;;;;;;5125993;27;20027;-57
2021/12/02 12:16:42;;;;;;;1.25;0.38;;;4.40;99.90;;;;;;5129231;27;20047;-57
2021/12/02 12:19:31;;;;;;;0.52;0.20;;;4.30;99.90;;;;;;5128632;27;20131;-56
2021/12/02 12:22:03;;;;;;;3.25;0.30;;;4.30;99.90;;;;;;5128877;27;20492;-56
2021/12/02 12:24:52;;;;;;;0.40;0.20;;;4.20;99.90;;;;;;5128002;27;20560;-56
2021/12/02 12:27:22;;;;;;;0.85;0.30;;;4.20;99.90;;;;;;5127920;27;20106;-57
2021/12/02 12:30:12;;;;;;;0.65;0.30;;;4.20;99.90;;;;;;5110175;27;20039;-57
2021/12/02 12:36:22;;;;;;;1.65;0.30;;;4.20;99.90;;;;;;5128232;27;20074;-56
2021/12/02 12:38:37;;;;;;;0.47;0.20;;;4.10;99.90;;;;;;5117130;27;20047;-56
2021/12/02 12:41:18;;;;;;;0.30;0.20;;;4.20;99.90;;;;;;5113563;27;20047;-57
2021/12/02 12:43:52;;;;;;;0.50;0.30;;;4.10;99.90;;;;;;5127462;27;20039;-56
2021/12/02 12:46:30;;;;;;;2.53;0.30;;;4.10;99.90;;;;;;5128684;27;20039;-56
2021/12/02 12:49:13;;;;;;;1.48;0.20;;;4.10;99.90;;;;;;5127120;27;20062;-57
2021/12/02 12:51:49;;;;;;;1.65;0.30;;;4.10;99.90;;;;;;5128807;27;20027;-57
2021/12/02 12:54:20;;;;;;;3.45;0.20;;;4.20;99.90;;;;;;5127663;27;20311;-56
2021/12/02 12:56:47;;;;;;;0.60;0.20;;;4.20;99.90;;;;;;5128099;27;20096;-57
2021/12/02 12:59:15;;;;;;;0.80;0.20;;;4.20;99.90;;;;;;5127575;27;20088;-56
2021/12/02 13:01:57;;;;;;;0.70;0.20;;;4.20;99.90;;;;;;5128463;27;20118;-57
2021/12/02 13:04:24;;;;;;;0.20;0.20;;;4.30;99.90;;;;;;5127330;27;20043;-57
2021/12/02 13:07:16;;;;;;;0.20;0.20;;;4.80;99.90;;;;;;5127507;27;20047;-57
2021/12/02 13:10:03;;;;;;;1.80;0.20;;;5.10;99.90;;;;;;5127053;27;20042;-57
2021/12/02 13:12:49;;;;;;;0.27;0.20;;;5.10;99.90;;;;;;5109218;27;20122;-57
2021/12/02 13:15:22;;;;;;;0.68;0.20;;;5.10;99.90;;;;;;5125541;27;20391;-57
2021/12/02 13:17:51;;;;;;;0.68;0.10;;;5.00;99.90;;;;;;5127469;27;20088;-57
2021/12/02 13:20:22;;;;;;;0.20;0.20;;;4.80;99.90;;;;;;5127926;27;20046;-57
2021/12/02 13:23:23;;;;;;;0.40;0.38;;;4.70;99.90;;;;;;5127697;27;20046;-57
2021/12/02 13:25:54;;;;;;;0.40;0.30;;;4.60;99.90;;;;;;5128052;27;20046;-57
2021/12/02 13:28:25;;;;;;;0.68;0.57;;;4.50;99.90;;;;;;5126634;27;20049;-57
2021/12/02 13:30:55;;;;;;;1.42;1.33;;;4.40;99.90;;;;;;5127771;27;20460;-57
2021/12/02 13:33:38;;;;;;;2.40;1.75;;;4.40;99.90;;;;;;5126620;27;20050;-57